Terminal Aerodrome Forecast
Issued by NWS Jackson, MS

Home | Current Version | Previous Version | Text Only | Print | Product List | Glossary On
Versions: 1 2 3 4 5 6 7 8 9 10 11 12 13
000
FTUS44 KJAN 200520
TAFHBG
TAF
KHBG 200520Z 2006/2106 00000KT P6SM FEW130 FEW250
     FM201000 00000KT 5SM BR FEW090 FEW250
     FM201200 00000KT 1SM BR FEW025 FEW250
     FM201400 00000KT P6SM FEW250
     FM201900 08004KT P6SM VCTS SCT250CB
     FM210100 00000KT P6SM FEW050 SCT090=

USA.gov is the U.S. government's official web portal to all federal, state and local government web resources and services.